Tiempo atmosférico en la estación meteorológica de Tenerife Norte Aeropuerto, Santa Cruz de Tenerife (632 m.)



Fecha
DESCASC
Temp. máxima en grados centígrados (hora)
DESCASC
Temp. mínima en grados centígrados (hora)
DESCASC
Temp. media en grados centígrados
DESCASC
Racha de viento máxima en m/sg (hora)
DESCASC
Velocidad máxima media en intervalos de 10 minutos(hora)
DESCASC
Precipitaciones diarias en mm
DESCASC
Precipitaciones de 00:00 a 06:00 en mm
DESCASC
Precipitaciones de 06:00 a 12:00 en mm
DESCASC
Precipitaciones de 12:00 a 18:00 en mm
DESCASC
Precipitaciones de 18:00 a 24:00 en mm
DESCASC
18-08-2019 35.1 (14:10) 22.7 (07:50) 28.9 7.22 (13:00) 4.17 (13:00) 0 0 0 0 0
17-08-2019 34.6 (14:30) 25.8 (06:20) 30.2 8.89 (02:50) 5 (04:40) 0 0 0 0 0
16-08-2019 34 (16:10) 15.6 (08:00) 24.8 10.28 (02:00) 7.78 (02:00) 0 0 0 0 0
15-08-2019 24.4 (14:00) 16 (00:00) 20.2 11.67 (15:20) 9.72 (17:00) 0 0 0 0 0
14-08-2019 24.1 (17:00) 15.6 (00:00) 19.9 12.78 (01:10) 9.72 (00:10) 0 0 0 0 0
13-08-2019 22.6 (13:20) 16.7 (00:00) 19.7 15.28 (16:30) 11.67 (16:40) 0 0 0 0 0
12-08-2019 24.3 (13:20) 16.8 (00:00) 20.5 13.33 (13:10) 9.72 (16:00) 0 0 0 0 0
11-08-2019 24.3 (14:40) 17.3 (00:00) 20.8 16.11 (16:10) 11.39 (17:40) 0.5 0.2 0.3 0 0
10-08-2019 25.2 (12:30) 17.9 (00:00) 21.6 11.67 (02:20) 9.72 (13:40) 0 0 0 0 0
09-08-2019 30.1 (11:40) 16.6 (00:00) 23.4 9.17 (23:50) 7.78 (23:59) 0 0 0 0 0
08-08-2019 27.9 (14:40) 14.7 (00:00) 21.3 8.33 (15:50) 5.83 (20:00) 0 0 0 0 0
07-08-2019 24.5 (14:40) 16.6 (00:00) 20.6 11.67 (00:50) 8.61 (18:50) 0 0 0 0 0
06-08-2019 23.2 (16:20) 17.3 (00:00) 20.3 15 (21:40) 10.28 (16:20) 0 0 0 0 0
05-08-2019 23.6 (13:20) 17.7 (00:00) 20.7 16.39 (06:20) 10.83 (07:00) 0 0 0 0 0
04-08-2019 23.7 (13:40) 16.1 (00:00) 19.9 13.89 (12:40) 10.28 (17:50) 0 0 0 0 0
03-08-2019 22.2 (13:30) 16.4 (00:00) 19.3 14.44 (19:00) 10.83 (19:00) 0 0 0 0 0
02-08-2019 22.7 (15:20) 16 (00:00) 19.4 13.89 (15:10) 10.83 (19:40) 0 0 0 0 0
01-08-2019 22.4 (14:20) 15.8 (00:00) 19.1 15 (00:40) 10.28 (16:40) 0 0 0 0 0
31-07-2019 20.7 (16:00) 15.7 (00:00) 18.2 16.94 (05:20) 12.5 (15:10) 0.1 0 0 0.1 0
30-07-2019 20.8 (13:30) 16.4 (00:00) 18.6 18.61 (18:10) 13.61 (18:10) 3.1 0.9 2.2 0 0
29-07-2019 21.8 (15:50) 16.4 (00:00) 19.1 16.11 (20:20) 10.83 (20:20) 0.1 0 0 0 0.1
28-07-2019 20.7 (18:50) 16.5 (00:00) 18.6 18.06 (19:00) 13.33 (19:10) 0.2 0 0.2 0 0
27-07-2019 22.4 (14:20) 16.4 (00:00) 19.4 16.39 (04:40) 11.11 (04:20) 0 0 0 0 0
26-07-2019 25 (16:30) 16.5 (00:00) 20.8 12.78 (21:50) 10 (12:40) 0 0 0 0 0
25-07-2019 27.8 (13:00) 16.2 (00:00) 22 16.11 (21:50) 11.67 (22:00) 0 0 0 0 0
24-07-2019 25.5 (16:30) 15.1 (00:00) 20.3 13.89 (03:40) 10.83 (05:30) 0 0 0 0 0
23-07-2019 21.8 (15:20) 15.9 (00:00) 18.8 15.28 (14:50) 11.67 (14:50) 0 0 0 0 0
22-07-2019 22.1 (15:20) 16.1 (00:00) 19.1 14.44 (07:00) 11.39 (20:00) 0 0 0 0 0
21-07-2019 23.3 (15:10) 16.3 (00:00) 19.8 12.5 (17:10) 8.89 (17:10) 0 0 0 0 0

Gráficas

Temp. máximas Temp. mínimas Temp. medias Precipitaciones Rachas de viento máximas Velocidades máximas media en intervalos de 10 minutos

Datos horarios

Fecha y hora oficial Temperatura (ºC) Velocidad del viento (km/h) Dirección del viento Racha (km/h) Dirección de racha Precipitación (mm) Presión (hPa) Tendencia (hPa) Humedad (%)
2019-08-19 23:00:00 24.5 18 Oeste 26 Oeste 0 949.1 1.6 21
2019-08-19 22:00:00 24.7 18 Oeste 26 Oeste 0 948.5 1.2 22
2019-08-19 21:00:00 24.4 18 Oeste 24 Oeste 0 948.1 0.8 53
2019-08-19 20:00:00 29.3 17 Oeste 24 Oeste 0 947.5 0.4 33
2019-08-19 19:00:00 31.7 13 Oeste 26 Oeste 0 947.3 0.1 23
2019-08-19 18:00:00 30.9 21 Oeste 28 Oeste 0 947.3 -0.4 37
2019-08-19 17:00:00 33.6 12 Oeste 22 Oeste 0 947.1 -1 27
2019-08-19 16:00:00 33.9 11 Este 21 Este 0 947.2 -0.8 25
2019-08-19 15:00:00 32.6 12 Este 22 Este 0 947.7 -0.3 25
2019-08-19 14:00:00 31.6 16 Sudeste 26 Sudeste 0 948.1 0.6 26
2019-08-19 13:00:00 31.3 13 Este 21 Este 0 948 0.8 35
2019-08-19 12:00:00 29.8 12 Este 22 Este 0 948 1 43
2019-08-19 11:00:00 31.1 9 Este 17 Este 0 947.5 0.8 24
2019-08-19 10:00:00 31.3 9 Este 13 Este 0 947.2 0.9 16
2019-08-19 09:00:00 29.1 4 Oeste 21 Oeste 0 947 0.8 19
2019-08-19 08:00:00 26.7 14 Oeste 21 Oeste 0 946.7 0.6 20
2019-08-19 07:00:00 25.9 10 Oeste 22 Oeste 0 946.3 -0.3 20
2019-08-19 06:00:00 24.3 13 Oeste 28 Noroeste 0 946.2 -0.8 19
2019-08-19 05:00:00 25.8 15 Oeste 28 Noroeste 0 946.1 -1.1 18
2019-08-19 04:00:00 25 19 Oeste 28 Oeste 0 946.6 -1 21
2019-08-19 03:00:00 25.5 15 Oeste 26 Oeste 0 947 -0.8 20
2019-08-19 02:00:00 26.5 17 Oeste 22 Oeste 0 947.2 -0.3 20
2019-08-19 01:00:00 25.7 11 Oeste 17 Oeste 0 947.6 0.7 20
2019-08-19 00:00:00 26.4 7 Oeste 13 Oeste 0 947.8 1.2 19
2019-08-18 23:00:00 27.6 5 Oeste 13 Este 0 947.5 1.3 17
2019-08-18 22:00:00 27.5 0 Calma 9 Norte 0 946.9 1 25
2019-08-18 21:00:00 28.4 2 Sudeste 13 Sur 0 946.6 0.4 27
2019-08-18 20:00:00 30.7 9 Sudeste 13 Este 0 946.2 0 24
2019-08-18 19:00:00 32.4 9 Este 21 Sudeste 0 945.9 -0.5 23
2019-08-18 18:00:00 32.7 13 Sudeste 24 Sudeste 0 946.2 -0.5 19
2019-08-18 17:00:00 34.2 15 Sudeste 22 Este 0 946.2 -0.9 18
2019-08-18 16:00:00 33.8 14 Sudeste 26 Este 0 946.4 -0.8 20
2019-08-18 15:00:00 33.9 14 Sudeste 24 Este 0 946.7 -0.6 23
2019-08-18 14:00:00 33.8 12 Sudeste 24 Sudeste 0 947.1 -0.1 22
2019-08-18 13:00:00 33 15 Sudeste 26 Sudeste 0 947.2 0.6 24
2019-08-18 12:00:00 33.4 10 Sudeste 21 Este 0 947.3 1.1 18
2019-08-18 11:00:00 32.3 9 Este 18 Este 0 947.2 1.5 17
2019-08-18 10:00:00 31.1 6 Sudeste 17 Sudeste 0 946.6 1.4 16
2019-08-18 09:00:00 29.9 0 Calma 11 Sur 0 946.2 0.9 17
2019-08-18 08:00:00 23.7 6 Oeste 13 Sur 0 945.7 0.2 27
2019-08-18 07:00:00 26 5 Sur 15 Sur 0 945.2 -0.5 24
2019-08-18 06:00:00 26.5 10 Sudeste 21 Sur 0 945.3 -0.4 27
2019-08-18 05:00:00 25.1 8 Sudeste 17 Este 0 945.5 -0.6 33
2019-08-18 04:00:00 24.6 6 Sur 15 Este 0 945.7 -0.7 33
2019-08-18 03:00:00 25.6 12 Sudeste 18 Sudeste 0 945.7 -0.8 34
2019-08-18 02:00:00 25.5 10 Sudeste 17 Sudeste 0 946.1 -0.4 34
2019-08-18 01:00:00 25.9 8 Sur 11 Sur 0 946.4 0.4 31
2019-08-18 00:00:00 26.8 6 Sudeste 13 Sur 0 946.5 1 29
2019-08-17 23:00:00 27.3 7 Sudeste 17 Este 0 946.5 1.3 33
2019-08-17 22:00:00 28.9 11 Este 17 Este 0 946 1 25
2019-08-17 21:00:00 27.9 0 Calma 11 Este 0 945.5 0.4 32
2019-08-17 20:00:00 30.4 8 Sudeste 21 Sur 0 945.2 0.4 28
2019-08-17 19:00:00 31.5 10 Sudeste 21 Sudeste 0 945 0 32
2019-08-17 18:00:00 32.8 13 Sudeste 21 Sudeste 0 945.1 -0.1 30
2019-08-17 17:00:00 33.2 14 Sudeste 24 Sudeste 0 944.8 -0.8 30
2019-08-17 16:00:00 33.3 16 Sudeste 26 Sudeste 0 945 -0.9 28
2019-08-17 15:00:00 33.7 17 Sudeste 28 Este 0 945.2 -0.8 27
2019-08-17 14:00:00 33.3 13 Sudeste 24 Este 0 945.6 -0.4 25
2019-08-17 13:00:00 32.1 14 Sudeste 26 Sudeste 0 945.9 0.3 28
2019-08-17 12:00:00 31.5 15 Sudeste 28 Este 0 946 0.6 29
2019-08-17 11:00:00 30.6 17 Sudeste 26 Sudeste 0 946 0.7 30
2019-08-17 10:00:00 30.2 15 Sudeste 22 Sudeste 0 945.6 0.5 28
2019-08-17 09:00:00 28.7 12 Sudeste 22 Sur 0 945.4 0.2 31
2019-08-17 08:00:00 26.9 13 Sudeste 26 Sudeste 0 945.3 0.3 34
2019-08-17 07:00:00 26.3 15 Sudeste 24 Sudeste 0 945.1 -0.1 38
2019-08-17 06:00:00 26 15 Sudeste 30 Sur 0 945.2 -0.2 38
2019-08-17 05:00:00 26 17 Sudeste 32 Sudeste 0 945 -0.9 39
2019-08-17 04:00:00 26.8 12 Sudeste 22 Sur 0 945.2 -1.2 31
2019-08-17 03:00:00 27.5 12 Sur 32 Sudeste 0 945.4 -1.1 29
2019-08-17 02:00:00 27.3 11 Sudeste 21 Sudeste 0 945.9 -0.6 30
2019-08-17 01:00:00 26.5 12 Sur 21 Sur 0 946.4 0.6 32
2019-08-17 00:00:00 26.5 11 Sudeste 17 Este 0 946.5 1.1 34
2019-08-16 23:00:00 26.4 8 Este 13 Sudeste 0 946.5 1.4 32
2019-08-16 22:00:00 23.6 9 Oeste 24 Oeste 0 945.8 0.8 57
2019-08-16 21:00:00 22.9 17 Oeste 26 Oeste 0 945.4 0.3 73
2019-08-16 20:00:00 22.6 17 Oeste 26 Oeste 0 945.1 0 86
2019-08-16 19:00:00 25.6 18 Oeste 26 Oeste 0 945 -0.2 72
2019-08-16 18:00:00 29.3 15 Oeste 18 Oeste 0 945.1 -0.5 57
2019-08-16 17:00:00 31.3 12 Oeste 21 Oeste 0 945.1 -1 48
2019-08-16 16:00:00 32.9 11 Sudeste 24 Este 0 945.2 -1.4 28
2019-08-16 15:00:00 32.4 12 Este 24 Este 0 945.6 -0.9 28
2019-08-16 14:00:00 32 14 Sudeste 30 Este 0 946.1 -0.4 27
2019-08-16 13:00:00 31.5 15 Sudeste 26 Este 0 946.6 0.3 27
2019-08-16 12:00:00 31.5 13 Sudeste 22 Este 0 946.5 0.3 26
2019-08-16 11:00:00 28.8 11 Sudeste 18 Este 0 946.5 0.4 30
2019-08-16 10:00:00 26.1 6 Sudeste 17 Sur 0 946.3 0.6 40
2019-08-16 09:00:00 25.8 9 Sudeste 21 Sudeste 0 946.2 0.8 36
2019-08-16 08:00:00 16.4 9 Sur 26 Oeste 0 946.1 0.4 97
2019-08-16 07:00:00 17.6 21 Oeste 32 Oeste 0 945.7 -0.5 100
2019-08-16 06:00:00 17.9 23 Oeste 35 Oeste 0 945.4 -1.1 100
2019-08-16 05:00:00 17.8 24 Oeste 35 Oeste 0 945.7 -1.1 99
2019-08-16 04:00:00 17.9 23 Oeste 32 Oeste 0 946.2 -1.2 98
2019-08-16 03:00:00 18 23 Oeste 35 Oeste 0 946.5 -1.1 98
2019-08-16 02:00:00 18 28 Oeste 37 Oeste 0 946.8 -1 98
2019-08-16 01:00:00 18 24 Oeste 33 Oeste 0 947.4 0.1 99
2019-08-16 00:00:00 18.4 22 Oeste 32 Oeste 0 947.6 0.5 99
2019-08-15 23:00:00 18.4 23 Oeste 33 Oeste 0 947.8 1 97
2019-08-15 22:00:00 18.5 27 Oeste 37 Oeste 0 947.3 0.4 97
2019-08-15 21:00:00 18.8 27 Oeste 39 Oeste 0 947.1 -0.1 95
2019-08-15 20:00:00 19.1 30 Oeste 42 Oeste 0 946.8 -0.3 90
2019-08-15 19:00:00 19.9 33 Oeste 42 Oeste 0 946.9 -0.4 87
2019-08-15 18:00:00 20.9 33 Oeste 42 Oeste 0 947.2 -0.5 82
2019-08-15 17:00:00 21.9 35 Oeste 42 Oeste 0 947.1 -1 79
2019-08-15 16:00:00 22.8 32 Oeste 42 Oeste 0 947.3 -1 73
2019-08-15 15:00:00 23.4 30 Oeste 41 Noroeste 0 947.7 -0.9 70
2019-08-15 14:00:00 23.9 27 Oeste 39 Oeste 0 948.1 -0.4 67
2019-08-15 13:00:00 23 28 Oeste 35 Oeste 0 948.3 0.2 71
2019-08-15 12:00:00 22.3 23 Oeste 35 Oeste 0 948.6 0.8 70
2019-08-15 11:00:00 20.9 26 Oeste 33 Oeste 0 948.5 0.8 76
2019-08-15 10:00:00 19.3 25 Oeste 32 Oeste 0 948.1 0.5 85
2019-08-15 09:00:00 17.3 26 Oeste 35 Oeste 0 947.8 0.2 95
2019-08-15 08:00:00 16.2 24 Oeste 33 Oeste 0 947.7 -0.1 98
2019-08-15 07:00:00 16.1 26 Oeste 33 Oeste 0 947.6 -0.4 97
2019-08-15 06:00:00 16.2 25 Oeste 35 Oeste 0 947.6 -0.8 96
2019-08-15 05:00:00 16.1 26 Oeste 37 Oeste 0 947.8 -1.1 97
2019-08-15 04:00:00 16.4 27 Oeste 37 Oeste 0 948 -0.9 96
2019-08-15 03:00:00 16.4 27 Oeste 41 Oeste 0 948.4 -0.8 95
2019-08-15 02:00:00 16.7 28 Oeste 39 Oeste 0 948.9 -0.3 94
2019-08-15 01:00:00 16.8 30 Oeste 41 Oeste 0 948.9 0 95
2019-08-15 00:00:00 16.9 29 Oeste 41 Oeste 0 949.2 0.8 96
2019-08-14 23:00:00 17.3 29 Oeste 37 Oeste 0 949.2 1.1 95
2019-08-14 22:00:00 17.2 28 Oeste 41 Oeste 0 948.9 0.9 93
2019-08-14 21:00:00 17.3 26 Oeste 35 Oeste 0 948.4 0 92
2019-08-14 20:00:00 18.5 28 Oeste 37 Oeste 0 948.1 -0.3 87
2019-08-14 19:00:00 20.2 28 Oeste 35 Oeste 0 948 -0.4 80
2019-08-14 18:00:00 21.7 25 Oeste 35 Oeste 0 948.4 -0.2 74
2019-08-14 17:00:00 23.3 23 Oeste 35 Noroeste 0 948.4 -0.7 65
2019-08-14 16:00:00 22.8 26 Oeste 39 Oeste 0 948.4 -1.1 67
2019-08-14 15:00:00 22.9 24 Oeste 41 Oeste 0 948.6 -1 65
2019-08-14 14:00:00 22.8 26 Oeste 37 Noroeste 0 949.1 -0.2 64
2019-08-14 13:00:00 21.7 28 Oeste 42 Oeste 0 949.5 0.4 68
2019-08-14 12:00:00 21.3 28 Noroeste 45 Oeste 0 949.6 0.9 69
2019-08-14 11:00:00 20.2 28 Noroeste 37 Noroeste 0 949.3 0.8 73
2019-08-14 10:00:00 19 26 Oeste 33 Oeste 0 949.1 0.9 79
2019-08-14 09:00:00 17.4 25 Oeste 35 Oeste 0 948.7 0.6 90
2019-08-14 08:00:00 15.9 23 Oeste 33 Oeste 0 948.5 0.5 97
2019-08-14 07:00:00 15.8 24 Oeste 35 Oeste 0 948.2 0 97
2019-08-14 06:00:00 16 27 Oeste 39 Oeste 0 948.1 -0.6 97
2019-08-14 05:00:00 15.9 27 Oeste 39 Oeste 0 948 -1.1 96
2019-08-14 04:00:00 16.2 29 Oeste 41 Oeste 0 948.2 -1.3 95
2019-08-14 03:00:00 16.3 30 Oeste 41 Noroeste 0 948.7 -0.9 93
2019-08-14 02:00:00 16.5 30 Oeste 46 Oeste 0 949.1 -0.4 87
2019-08-14 01:00:00 16.8 29 Oeste 45 Oeste 0 949.5 0.4 91
2019-08-14 00:00:00 17 33 Oeste 46 Oeste 0 949.6 1.1 90
2019-08-13 23:00:00 17.2 37 Oeste 55 Oeste 0 949.5 1.3 90
2019-08-13 22:00:00 17.3 30 Noroeste 52 Oeste 0 949.1 0.9 91
2019-08-13 21:00:00 17.5 32 Noroeste 50 Noroeste 0 948.5 0.1 89
2019-08-13 20:00:00 18.1 37 Noroeste 54 Noroeste 0 948.2 -0.1 86
2019-08-13 19:00:00 18.6 37 Noroeste 50 Noroeste 0 948.2 -0.3 81
2019-08-13 18:00:00 19.2 37 Noroeste 54 Noroeste 0 948.4 -0.5 77
2019-08-13 17:00:00 20.6 39 Noroeste 55 Oeste 0 948.3 -1 74
2019-08-13 16:00:00 20.6 39 Noroeste 54 Oeste 0 948.5 -1.1 72
2019-08-13 15:00:00 20.6 36 Oeste 54 Noroeste 0 948.9 -0.9 75
2019-08-13 14:00:00 21.3 37 Oeste 50 Oeste 0 949.3 -0.3 69
2019-08-13 13:00:00 21.5 34 Oeste 52 Oeste 0 949.6 0.3 72
2019-08-13 12:00:00 20.7 33 Oeste 48 Noroeste 0 949.8 0.7 70
2019-08-13 11:00:00 20.4 35 Noroeste 48 Noroeste 0 949.6 0.9 74
2019-08-13 10:00:00 19.8 33 Oeste 52 Oeste 0 949.3 0.6 81
2019-08-13 09:00:00 18.5 33 Oeste 52 Oeste 0 949.1 0.3 87
2019-08-13 08:00:00 17.1 37 Oeste 52 Oeste 0 948.7 -0.1 94
2019-08-13 07:00:00 17 34 Oeste 46 Oeste 0 948.7 -0.5 95
2019-08-13 06:00:00 17 30 Oeste 46 Oeste 0 948.8 -0.6 95
2019-08-13 05:00:00 17.2 30 Oeste 39 Oeste 0 948.8 -0.8 94
2019-08-13 04:00:00 17.1 26 Oeste 39 Oeste 0 949.2 -0.9 94
2019-08-13 03:00:00 17.1 24 Oeste 45 Noroeste 0 949.4 -0.9 96
2019-08-13 02:00:00 17.3 30 Oeste 41 Oeste 0 949.6 -0.5 95
2019-08-13 01:00:00 17.3 28 Oeste 45 Oeste 0 950.1 0.4 95
2019-08-13 00:00:00 17.3 30 Oeste 42 Oeste 0 950.3 1.1 93
2019-08-12 23:00:00 17.5 31 Noroeste 42 Oeste 0 950.1 1.4 93
2019-08-12 22:00:00 17.5 30 Oeste 48 Noroeste 0 949.7 1.7 93
2019-08-12 21:00:00 17.7 33 Oeste 45 Oeste 0 949.2 1 90
2019-08-12 20:00:00 18.6 31 Oeste 46 Oeste 0 948.7 0.5 85
2019-08-12 19:00:00 20.2 32 Oeste 45 Oeste 0 948 -0.5 77
2019-08-12 18:00:00 21.5 33 Oeste 46 Oeste 0 948.2 -0.5 70
2019-08-12 17:00:00 22.2 32 Oeste 42 Oeste 0 948.2 -0.9 67
2019-08-12 16:00:00 22.4 35 Oeste 45 Oeste 0 948.5 -0.7 68
2019-08-12 15:00:00 23.3 27 Noroeste 41 Noroeste 0 948.7 -0.8 63
2019-08-12 14:00:00 23.3 27 Oeste 48 Noroeste 0 949.1 -0.4 63
2019-08-12 13:00:00 22.6 28 Noroeste 45 Noroeste 0 949.2 -0.1 67
2019-08-12 12:00:00 21.9 28 Noroeste 46 Noroeste 0 949.5 0.3 70
2019-08-12 11:00:00 20.2 27 Noroeste 46 Noroeste 0 949.5 0.7 80
2019-08-12 10:00:00 19.4 23 Noroeste 42 Noroeste 0 949.3 0.7 82
2019-08-12 09:00:00 18.9 22 Noroeste 39 Noroeste 0 949.2 0.8 85
2019-08-12 08:00:00 17.6 20 Noroeste 30 Noroeste 0 948.8 0.3 89
2019-08-12 07:00:00 17.4 17 Noroeste 30 Noroeste 0 948.6 -0.1 90
2019-08-12 06:00:00 17.5 14 Noroeste 30 Noroeste 0 948.4 -0.7 89
2019-08-12 05:00:00 17 13 Oeste 26 Noroeste 0 948.5 -1.4 91
2019-08-12 04:00:00 17.4 18 Oeste 32 Oeste 0 948.7 -1.5 90
2019-08-12 03:00:00 17.5 21 Oeste 33 Oeste 0 949.1 -1.4 90
2019-08-12 02:00:00 17.5 19 Oeste 45 Noroeste 0 949.9 -0.5 89
2019-08-12 01:00:00 17.4 27 Oeste 37 Oeste 0 950.2 0.1 89
2019-08-12 00:00:00 17.4 22 Oeste 37 Oeste 0 950.5 0.9 92
2019-08-11 23:00:00 17.7 22 Oeste 33 Oeste 0 950.4 1.4 92
2019-08-11 22:00:00 18.2 21 Oeste 41 Oeste 0 950.1 1.5 89
2019-08-11 21:00:00 18.3 29 Oeste 39 Oeste 0 949.6 1 89
2019-08-11 20:00:00 19.2 28 Oeste 46 Noroeste 0 949 0.4 84
2019-08-11 19:00:00 20.8 32 Noroeste 48 Oeste 0 948.6 -0.1 74
2019-08-11 18:00:00 21.6 36 Noroeste 54 Oeste 0 948.6 -0.3 72
2019-08-11 17:00:00 22.8 35 Noroeste 58 Noroeste 0 948.6 -1 61
2019-08-11 16:00:00 23.1 35 Noroeste 54 Noroeste 0 948.7 -1.2 67
2019-08-11 15:00:00 22.8 39 Noroeste 55 Noroeste 0 948.9 -1.2 73
2019-08-11 14:00:00 22.4 30 Noroeste 50 Oeste 0 949.6 -0.7 75
2019-08-11 13:00:00 23.6 28 Noroeste 46 Norte 0 949.9 0 75
2019-08-11 12:00:00 22.8 27 Noroeste 42 Noroeste 0 950.1 0.3 76
2019-08-11 11:00:00 19.9 22 Noroeste 39 Noroeste 0 950.3 0.7 100
2019-08-11 10:00:00 19.9 28 Noroeste 39 Noroeste 0 949.9 0.6 100
2019-08-11 09:00:00 20 25 Noroeste 42 Oeste 0.1 949.8 0.5 100
2019-08-11 08:00:00 19.9 28 Noroeste 45 Noroeste 0.2 949.6 0.1 100
2019-08-11 07:00:00 19.4 25 Noroeste 39 Oeste 0 949.3 -0.6 99
2019-08-11 06:00:00 19.6 25 Oeste 39 Noroeste 0 949.3 -0.9 100
2019-08-11 05:00:00 19.5 22 Noroeste 37 Noroeste 0.2 949.5 -1.2 98
2019-08-11 04:00:00 19.6 20 Noroeste 41 Noroeste 0 949.9 -1.2 98
2019-08-11 03:00:00 19.8 21 Noroeste 37 Noroeste 0 950.2 -1 92
2019-08-11 02:00:00 19.6 24 Noroeste 41 Noroeste 0 950.7 -0.3 93
2019-08-11 01:00:00 19.6 21 Noroeste 35 Noroeste 0 951.1 0.6 95
2019-08-11 00:00:00 19.5 20 Noroeste 41 Noroeste 0 951.2 1 97
2019-08-10 23:00:00 19.5 26 Noroeste 41 Oeste 0 951 0.9 98
2019-08-10 22:00:00 19.6 25 Oeste 39 Noroeste 0 950.5 0.6 95
2019-08-10 21:00:00 19.9 26 Oeste 35 Oeste 0 950.2 0.5 90
2019-08-10 20:00:00 21 24 Oeste 39 Oeste 0 950.1 0.2 86
2019-08-10 19:00:00 22.1 28 Oeste 42 Oeste 0 949.9 -0.3 82
2019-08-10 18:00:00 23 33 Oeste 42 Oeste 0 949.7 -1 80
2019-08-10 17:00:00 23.7 32 Oeste 42 Oeste 0 949.9 -1.1 76
2019-08-10 16:00:00 23.9 31 Oeste 41 Oeste 0 950.2 -0.9 75
2019-08-10 15:00:00 24.1 28 Oeste 41 Oeste 0 950.7 -0.5 72
2019-08-10 14:00:00 24.1 32 Oeste 42 Oeste 0 951 0.2 73
2019-08-10 13:00:00 24.4 32 Oeste 39 Oeste 0 951.1 0.9 72
2019-08-10 12:00:00 23.6 24 Oeste 33 Oeste 0 951.2 1.5 75
2019-08-10 11:00:00 23.4 27 Oeste 32 Oeste 0 950.8 1.3 76
2019-08-10 10:00:00 22.5 22 Oeste 30 Oeste 0 950.2 1.1 78
2019-08-10 09:00:00 19.4 22 Oeste 32 Oeste 0 949.7 0.6 94
2019-08-10 08:00:00 18.3 24 Oeste 33 Oeste 0 949.5 0.5 98
2019-08-10 07:00:00 18.4 26 Oeste 37 Oeste 0 949.1 -0.3 98
2019-08-10 06:00:00 18.3 26 Oeste 39 Oeste 0 949.1 -0.7 98
2019-08-10 05:00:00 18.4 30 Oeste 41 Oeste 0 949 -1.3 97
2019-08-10 04:00:00 18.3 26 Oeste 39 Oeste 0 949.4 -1.3 96
2019-08-10 03:00:00 18.2 33 Oeste 42 Oeste 0 949.8 -1 96
2019-08-10 02:00:00 18.4 30 Oeste 37 Oeste 0 950.3 -0.2 88
2019-08-10 01:00:00 18.6 32 Oeste 39 Oeste 0 950.7 0.7 89
2019-08-10 00:00:00 19.9 28 Oeste 33 Oeste 0 950.8 1.2 65
2019-08-09 23:00:00 21.4 19 Oeste 26 Oeste 0 950.5 1.4 49
2019-08-09 22:00:00 21.7 13 Oeste 22 Oeste 0 950 1.1 57
2019-08-09 21:00:00 20.7 12 Oeste 24 Oeste 0 949.6 0.8 86
2019-08-09 20:00:00 22.4 20 Oeste 24 Oeste 0 949.1 0.1 78
2019-08-09 19:00:00 24.8 17 Oeste 24 Oeste 0 948.9 -0.3 65
2019-08-09 18:00:00 27.2 9 Oeste 22 Oeste 0 948.8 -0.7 59
2019-08-09 17:00:00 26.9 14 Noroeste 26 Oeste 0 949 -0.4 62
2019-08-09 16:00:00 27 14 Oeste 22 Oeste 0 949.2 -0.5 62
2019-08-09 15:00:00 24.1 13 Este 24 Este 0 949.5 0.2 74
2019-08-09 14:00:00 24.9 14 Sudeste 24 Este 0 949.4 0.4 68
2019-08-09 13:00:00 25.2 16 Sudeste 26 Sudeste 0 949.7 0.9 65
2019-08-09 12:00:00 28.1 12 Este 22 Este 0 949.3 0.8 49
2019-08-09 11:00:00 27.5 6 Noroeste 17 Oeste 0 949 0.9 43
2019-08-09 10:00:00 23.9 13 Oeste 22 Oeste 0 948.8 0.6 52
2019-08-09 09:00:00 24.5 12 Oeste 30 Oeste 0 948.5 0.3 21
2019-08-09 08:00:00 21.7 22 Oeste 26 Oeste 0 948.1 -0.1 25
2019-08-09 07:00:00 21.2 17 Oeste 24 Oeste 0 948.2 0 29
2019-08-09 06:00:00 18.9 17 Oeste 28 Oeste 0 948.2 -0.5 69
2019-08-09 05:00:00 16.8 21 Oeste 30 Oeste 0 948.2 -1 100
2019-08-09 04:00:00 17.3 21 Oeste 26 Oeste 0 948.2 -1.2 91
2019-08-09 03:00:00 19.1 20 Oeste 26 Oeste 0 948.7 -0.5 84
2019-08-09 02:00:00 19 18 Oeste 26 Oeste 0 949.2 0.3 84
2019-08-09 01:00:00 18.4 15 Oeste 26 Oeste 0 949.4 1 92
2019-08-09 00:00:00 18.4 17 Oeste 24 Oeste 0 949.2 1.3 93
2019-08-08 23:00:00 18.3 18 Oeste 26 Oeste 0 948.9 1.5 95
2019-08-08 22:00:00 18.3 18 Oeste 28 Oeste 0 948.4 1.2 96
2019-08-08 21:00:00 19 17 Oeste 28 Oeste 0 947.9 0.8 93
2019-08-08 20:00:00 21.7 21 Oeste 26 Oeste 0 947.4 0.3 79
2019-08-08 19:00:00 23.6 16 Oeste 22 Oeste 0 947.2 0 72
2019-08-08 18:00:00 25.4 8 Oeste 15 Oeste 0 947.1 -0.2 65
2019-08-08 17:00:00 25.7 10 Sudeste 21 Este 0 947.1 -0.2 65
2019-08-08 16:00:00 25 13 Este 30 Este 0 947.2 -0.3 68
2019-08-08 15:00:00 27.3 7 Oeste 24 Oeste 0 947.3 -0.2 56
2019-08-08 14:00:00 26.6 8 Nordeste 26 Este 0 947.3 0 55
2019-08-08 13:00:00 26 12 Este 22 Este 0 947.5 0.7 60
2019-08-08 12:00:00 24 14 Este 22 Este 0 947.5 0.9 71
2019-08-08 11:00:00 23.2 6 Oeste 28 Oeste 0 947.3 0.9 67
2019-08-08 10:00:00 21.3 17 Oeste 22 Oeste 0 946.8 0.8 74
2019-08-08 09:00:00 18.2 4 Noroeste 13 Norte 0 946.6 0.7 81
2019-08-08 08:00:00 16.1 4 Oeste 15 Oeste 0 946.4 0.6 72
2019-08-08 07:00:00 16.3 12 Oeste 18 Oeste 0 946 -0.1 97
2019-08-08 06:00:00 16.7 16 Oeste 26 Oeste 0 945.9 -0.8 94
2019-08-08 05:00:00 16.6 20 Oeste 28 Oeste 0 945.8 -1.3 95
2019-08-08 04:00:00 16.5 19 Oeste 24 Oeste 0 946.1 -1.4 97
2019-08-08 03:00:00 16.8 16 Oeste 24 Oeste 0 946.7 -1 98
2019-08-08 02:00:00 16.7 15 Oeste 22 Oeste 0 947.1 -0.4 95
2019-08-08 01:00:00 17.2 14 Oeste 22 Oeste 0 947.5 0.4 90
2019-08-08 00:00:00 17.2 13 Oeste 24 Oeste 0 947.7 1 94
2019-08-07 23:00:00 17.2 16 Oeste 30 Oeste 0 947.5 0.9 94
2019-08-07 22:00:00 17.6 22 Oeste 33 Oeste 0 947.1 0.6 92
2019-08-07 21:00:00 18.2 27 Oeste 35 Oeste 0 946.7 0 90
2019-08-07 20:00:00 19.3 27 Oeste 39 Oeste 0 946.6 -0.4 89
2019-08-07 19:00:00 21.1 31 Oeste 39 Oeste 0 946.5 -0.8 78
2019-08-07 18:00:00 22.2 23 Oeste 30 Oeste 0 946.7 -0.6 73
2019-08-07 17:00:00 22.9 23 Oeste 32 Oeste 0 947 -0.5 70
2019-08-07 16:00:00 23.3 23 Oeste 39 Oeste 0 947.3 -0.3 68
2019-08-07 15:00:00 23.5 27 Oeste 35 Oeste 0 947.3 -0.2 66
2019-08-07 14:00:00 22.8 26 Oeste 33 Oeste 0 947.5 0 68
2019-08-07 13:00:00 22.1 25 Oeste 41 Noroeste 0 947.6 0.4 70
2019-08-07 12:00:00 21.9 27 Oeste 39 Oeste 0 947.5 0.4 71
2019-08-07 11:00:00 21.3 26 Noroeste 41 Oeste 0 947.5 0.9 78
2019-08-07 10:00:00 20.1 28 Noroeste 39 Oeste 0 947.2 0.9 80
2019-08-07 09:00:00 18.8 25 Oeste 35 Oeste 0 947.1 1 88
2019-08-07 08:00:00 17.5 26 Oeste 37 Oeste 0 946.6 0.3 95
2019-08-07 07:00:00 16.8 27 Oeste 37 Oeste 0 946.3 -0.1 93
2019-08-07 06:00:00 17.4 27 Noroeste 39 Oeste 0 946.1 -0.5 92
2019-08-07 05:00:00 17.7 24 Noroeste 42 Oeste 0 946.3 -0.8 91
2019-08-07 04:00:00 17.9 25 Noroeste 37 Noroeste 0 946.4 -1.2 91
2019-08-07 03:00:00 18 25 Noroeste 35 Noroeste 0 946.6 -1.3 91
2019-08-07 02:00:00 18 24 Noroeste 35 Noroeste 0 947.1 -0.6 90
2019-08-07 01:00:00 18.3 22 Noroeste 42 Noroeste 0 947.6 0.1 89
2019-08-07 00:00:00 18.4 26 Noroeste 42 Noroeste 0 947.9 0.8 90
2019-08-06 23:00:00 18.5 33 Noroeste 46 Noroeste 0 947.7 1 93
2019-08-06 22:00:00 18.4 27 Noroeste 54 Oeste 0 947.5 1 91
2019-08-06 21:00:00 18.7 27 Noroeste 48 Noroeste 0 947.1 0.5 88
2019-08-06 20:00:00 19.1 30 Noroeste 48 Oeste 0 946.7 -0.2 85
2019-08-06 19:00:00 20.5 33 Oeste 48 Oeste 0 946.5 -0.8 76
2019-08-06 18:00:00 20.8 33 Noroeste 45 Noroeste 0 946.6 -1.1 77
2019-08-06 17:00:00 21.9 33 Noroeste 50 Oeste 0 946.9 -1.1 75
2019-08-06 16:00:00 22.4 34 Noroeste 48 Oeste 0 947.3 -1.1 72
2019-08-06 15:00:00 21.8 33 Oeste 50 Oeste 0 947.7 -0.7 74
2019-08-06 14:00:00 22.4 33 Noroeste 48 Noroeste 0 948 -0.1 71
2019-08-06 13:00:00 21.7 31 Noroeste 48 Oeste 0 948.4 0.4 73
2019-08-06 12:00:00 20.6 29 Noroeste 46 Noroeste 0 948.4 0.4 79
2019-08-06 11:00:00 20.7 29 Noroeste 41 Noroeste 0 948.1 0.3 78
2019-08-06 10:00:00 19.4 26 Noroeste 45 Oeste 0 948 0.4 84
2019-08-06 09:00:00 18.7 28 Noroeste 45 Noroeste 0 948 0.2 83
2019-08-06 08:00:00 17.6 30 Noroeste 46 Oeste 0 947.8 -0.1 94
2019-08-06 07:00:00 17.5 27 Noroeste 37 Oeste 0 947.6 -0.5 95
2019-08-06 06:00:00 17.7 25 Noroeste 42 Oeste 0 947.8 -0.4 95
2019-08-06 05:00:00 17.7 31 Noroeste 46 Noroeste 0 947.9 -0.8 95
2019-08-06 04:00:00 17.7 31 Noroeste 46 Oeste 0 948.1 -0.9 93
2019-08-06 03:00:00 17.6 30 Noroeste 48 Noroeste 0 948.2 -0.9 93
2019-08-06 02:00:00 17.9 32 Oeste 50 Oeste 0 948.7 -0.2 95
2019-08-06 01:00:00 18 31 Oeste 45 Oeste 0 949 0.3 94
2019-08-06 00:00:00 18.3 31 Noroeste 45 Oeste 0 949.1 0.8 95
2019-08-05 23:00:00 18.2 32 Noroeste 46 Noroeste 0 948.9 0.9 95
2019-08-05 22:00:00 18.2 27 Oeste 39 Oeste 0 948.7 0.9 93
2019-08-05 21:00:00 18.5 26 Oeste 41 Oeste 0 948.3 0.3 91
2019-08-05 20:00:00 19.1 28 Oeste 46 Oeste 0 948 -0.2 86
2019-08-05 19:00:00 20.5 27 Oeste 39 Oeste 0 947.8 -0.5 81
2019-08-05 18:00:00 21.8 28 Oeste 41 Oeste 0 948 -0.6 75
2019-08-05 17:00:00 22.3 26 Oeste 39 Noroeste 0 948.2 -0.7 72
2019-08-05 16:00:00 22.6 25 Noroeste 41 Oeste 0 948.3 -0.7 72
2019-08-05 15:00:00 22.1 29 Oeste 41 Oeste 0 948.6 -0.5 74
2019-08-05 14:00:00 22.7 26 Noroeste 42 Noroeste 0 948.9 -0.1 68
2019-08-05 13:00:00 22.9 25 Noroeste 45 Oeste 0 949 0.2 66
2019-08-05 12:00:00 21.5 25 Oeste 39 Oeste 0 949.1 0.2 74
2019-08-05 11:00:00 20.6 30 Noroeste 45 Oeste 0 949 0.7 78
2019-08-05 10:00:00 19.2 34 Oeste 46 Oeste 0 948.8 0.6 85
2019-08-05 09:00:00 19 28 Noroeste 45 Noroeste 0 948.9 0.7 87
2019-08-05 08:00:00 18.2 34 Noroeste 55 Noroeste 0 948.3 0.1 94
2019-08-05 07:00:00 17.9 39 Oeste 59 Oeste 0 948.2 -0.4 93
2019-08-05 06:00:00 17.9 34 Oeste 58 Oeste 0 948.2 -0.5 94
2019-08-05 05:00:00 17.9 32 Noroeste 46 Oeste 0 948.2 -1.1 95
2019-08-05 04:00:00 18 27 Noroeste 46 Oeste 0 948.6 -1.1 94
2019-08-05 03:00:00 18.3 22 Noroeste 41 Norte 0 948.7 -1.1 90
2019-08-05 02:00:00 18.1 20 Noroeste 48 Oeste 0 949.3 -0.5 92
2019-08-05 01:00:00 18.4 22 Noroeste 35 Noroeste 0 949.7 0.4 91
2019-08-05 00:00:00 18.4 23 Noroeste 45 Noroeste 0 949.8 0.9 89
2019-08-04 23:00:00 18.4 22 Oeste 45 Noroeste 0 949.8 1.3 89
2019-08-04 22:00:00 18.4 28 Noroeste 39 Noroeste 0 949.3 1.1 90
2019-08-04 21:00:00 18.6 26 Noroeste 42 Noroeste 0 948.9 0.7 90
2019-08-04 20:00:00 18.9 27 Noroeste 42 Noroeste 0 948.5 0.3 88
2019-08-04 19:00:00 20.3 30 Noroeste 46 Oeste 0 948.2 -0.2 77
2019-08-04 18:00:00 19.8 35 Noroeste 46 Noroeste 0 948.2 -0.8 84
2019-08-04 17:00:00 20.3 33 Noroeste 45 Noroeste 0 948.2 -0.9 85
2019-08-04 16:00:00 20.7 30 Oeste 46 Noroeste 0 948.4 -1 82
2019-08-04 15:00:00 20.7 27 Noroeste 46 Noroeste 0 949 -0.6 80
2019-08-04 14:00:00 22.5 28 Noroeste 45 Noroeste 0 949.1 -0.4 68
2019-08-04 13:00:00 22.5 24 Noroeste 50 Oeste 0 949.4 0.1 64
2019-08-04 12:00:00 21.1 31 Noroeste 46 Oeste 0 949.6 0.8 68
2019-08-04 11:00:00 20.1 27 Noroeste 41 Oeste 0 949.5 0.7 79
2019-08-04 10:00:00 19.4 23 Oeste 45 Oeste 0 949.3 0.7 78
2019-08-04 09:00:00 18.6 28 Noroeste 45 Noroeste 0 948.8 0.6 74
2019-08-04 08:00:00 17.1 23 Noroeste 42 Oeste 0 948.8 0.5 87
2019-08-04 07:00:00 16.6 23 Oeste 39 Noroeste 0 948.6 0.2 95
2019-08-04 06:00:00 16.5 27 Oeste 42 Oeste 0 948.2 -0.5 90
2019-08-04 05:00:00 16.4 30 Oeste 41 Oeste 0 948.3 -0.7 94
2019-08-04 04:00:00 16.4 31 Oeste 45 Oeste 0 948.4 -1.1 95
2019-08-04 03:00:00 16.6 28 Oeste 39 Oeste 0 948.7 -1.1 95
2019-08-04 02:00:00 16.7 28 Noroeste 45 Noroeste 0 949 -0.3 95
2019-08-04 01:00:00 16.9 27 Oeste 39 Noroeste 0 949.5 0.7 93
2019-08-04 00:00:00 16.8 28 Oeste 45 Noroeste 0 949.8 1.4 93
2019-08-03 23:00:00 16.9 32 Oeste 52 Oeste 0 949.3 1.2 94
2019-08-03 22:00:00 17.2 35 Oeste 52 Oeste 0 948.8 0.7 92
2019-08-03 21:00:00 17.3 35 Oeste 48 Oeste 0 948.4 0 88
2019-08-03 20:00:00 18.1 35 Oeste 50 Oeste 0 948.1 -0.5 85
2019-08-03 19:00:00 19.6 39 Oeste 52 Oeste 0 948.1 -1.1 80
2019-08-03 18:00:00 20.5 32 Oeste 46 Oeste 0 948.4 -1.1 78
2019-08-03 17:00:00 21 31 Oeste 48 Noroeste 0 948.6 -1.2 71
2019-08-03 16:00:00 20.3 31 Noroeste 46 Noroeste 0 949.2 -0.7 75
2019-08-03 15:00:00 20.6 33 Noroeste 48 Noroeste 0 949.5 -0.3 76
2019-08-03 14:00:00 21.2 33 Noroeste 46 Oeste 0 949.8 0.1 73
2019-08-03 13:00:00 21 33 Oeste 48 Oeste 0 949.9 0.8 70
2019-08-03 12:00:00 20.2 39 Oeste 48 Oeste 0 949.8 1.1 75
2019-08-03 11:00:00 19.6 28 Noroeste 42 Oeste 0 949.7 1.2 79
2019-08-03 10:00:00 18.4 29 Oeste 41 Oeste 0 949.1 0.9 83
2019-08-03 09:00:00 17.7 31 Noroeste 41 Noroeste 0 948.7 0.4 86
2019-08-03 08:00:00 17 30 Oeste 42 Oeste 0 948.5 0.2 91
2019-08-03 07:00:00 16.9 28 Noroeste 39 Noroeste 0 948.2 -0.3 93
2019-08-03 06:00:00 16.9 24 Noroeste 37 Noroeste 0 948.3 -0.6 95
2019-08-03 05:00:00 16.9 23 Oeste 37 Noroeste 0 948.3 -0.9 88
2019-08-03 04:00:00 16.6 27 Noroeste 37 Noroeste 0 948.5 -0.7 91
2019-08-03 03:00:00 16.9 30 Noroeste 41 Noroeste 0 948.9 -0.5 95
2019-08-03 02:00:00 17.3 30 Oeste 48 Noroeste 0 949.2 -0.2 92
2019-08-03 01:00:00 17.2 35 Oeste 50 Noroeste 0 949.2 0.1 92
2019-08-03 00:00:00 17.4 34 Noroeste 46 Oeste 0 949.4 0.5 91
2019-08-02 23:00:00 17.3 33 Oeste 45 Oeste 0 949.4 0.7 92
2019-08-02 22:00:00 17.5 31 Oeste 45 Noroeste 0 949.1 0.5 88
2019-08-02 21:00:00 17.7 30 Noroeste 48 Oeste 0 948.9 0.3 88
2019-08-02 20:00:00 18.2 34 Noroeste 50 Oeste 0 948.7 -0.3 83
2019-08-02 19:00:00 19.2 34 Oeste 48 Oeste 0 948.6 -0.5 77
2019-08-02 18:00:00 20.7 32 Oeste 46 Oeste 0 948.6 -0.6 71
2019-08-02 17:00:00 21.2 35 Oeste 50 Oeste 0 949 -0.6 70
2019-08-02 16:00:00 21.9 32 Noroeste 50 Oeste 0 949.1 -0.7 69
2019-08-02 15:00:00 21.7 32 Oeste 46 Oeste 0 949.2 -0.6 66
2019-08-02 14:00:00 22 29 Noroeste 45 Noroeste 0 949.6 -0.1 66
2019-08-02 13:00:00 21.3 30 Noroeste 41 Noroeste 0 949.8 0.3 66
2019-08-02 12:00:00 20.7 29 Noroeste 41 Noroeste 0 949.8 0.6 70
2019-08-02 11:00:00 19.6 23 Noroeste 41 Oeste 0 949.7 1.1 79
2019-08-02 10:00:00 19 29 Noroeste 39 Noroeste 0 949.5 1.2 75
2019-08-02 09:00:00 18 23 Noroeste -- -- -- 949.2 1 79
2019-08-02 08:00:00 17.1 24 Oeste 39 Oeste 0 948.6 0.3 92
2019-08-02 07:00:00 16.7 27 Oeste 46 Noroeste 0 948.3 -0.2 88
2019-08-02 06:00:00 16.5 28 Noroeste 42 Oeste 0 948.2 -0.4 94
2019-08-02 05:00:00 16.6 28 Oeste 35 Oeste 0 948.3 -0.6 94
2019-08-02 04:00:00 16.2 26 Oeste 45 Noroeste 0 948.5 -0.5 92
2019-08-02 03:00:00 16.1 30 Oeste 42 Oeste 0 948.6 -0.5 89
2019-08-02 02:00:00 16.3 29 Oeste 41 Oeste 0 948.9 -0.2 86
2019-08-02 01:00:00 16.6 30 Noroeste 45 Oeste 0 949 0.3 86
2019-08-02 00:00:00 17.1 32 Noroeste 45 Noroeste 0 949.1 0.6 88
2019-08-01 23:00:00 16.7 32 Noroeste 45 Noroeste 0 949.1 0.9 87
2019-08-01 22:00:00 16.9 31 Oeste 45 Oeste 0 948.7 0.8 91
2019-08-01 21:00:00 17.2 30 Noroeste 45 Oeste 0 948.5 0.7 90
2019-08-01 20:00:00 18.1 27 Oeste 42 Noroeste 0 948.2 0.4 89
2019-08-01 19:00:00 19 30 Oeste 48 Oeste 0 947.9 -0.1 81
2019-08-01 18:00:00 19.7 35 Oeste 46 Noroeste 0 947.8 -0.6 76
2019-08-01 17:00:00 20.1 35 Noroeste 46 Noroeste 0 947.8 -1 76
2019-08-01 16:00:00 20.4 30 Noroeste 45 Noroeste 0 948 -0.8 77
2019-08-01 15:00:00 20.6 29 Noroeste 41 Noroeste 0 948.4 -0.3 75
2019-08-01 14:00:00 21.6 28 Noroeste 41 Noroeste 0 948.8 0.5 67
2019-08-01 13:00:00 21.2 28 Noroeste 45 Noroeste 0 948.8 0.7 65
2019-08-01 12:00:00 20.4 27 Noroeste 42 Noroeste 0 948.7 1 68
2019-08-01 11:00:00 18.8 28 Noroeste 45 Oeste 0 948.3 1.1 84
2019-08-01 10:00:00 17.6 29 Oeste 42 Noroeste 0 948.1 1.2 86
2019-08-01 09:00:00 17.8 29 Noroeste 45 Noroeste 0 947.7 0.8 80
2019-08-01 08:00:00 16.5 33 Oeste 41 Noroeste 0 947.2 0.2 91
2019-08-01 07:00:00 16 27 Noroeste 42 Noroeste 0 946.9 -0.5 86
2019-08-01 06:00:00 16.3 27 Oeste 45 Noroeste 0 946.9 -0.6 90
2019-08-01 05:00:00 16.1 28 Noroeste 46 Oeste 0 947 -0.9 88
2019-08-01 04:00:00 16.1 30 Oeste 46 Oeste 0 947.4 -0.8 85
2019-08-01 03:00:00 16.3 32 Oeste 42 Oeste 0 947.5 -0.6 90
2019-08-01 02:00:00 16.1 33 Oeste 50 Oeste 0 947.9 0.1 90
2019-08-01 01:00:00 16.3 33 Noroeste 54 Oeste 0 948.2 0.7 93
2019-08-01 00:00:00 16.3 39 Oeste 54 Oeste 0 948.1 0.9 92
2019-07-31 23:00:00 16.8 36 Oeste 48 Oeste 0 947.8 1.1 89
2019-07-31 22:00:00 16.9 34 Oeste 54 Oeste 0 947.5 0.7 90
2019-07-31 21:00:00 17.2 36 Oeste 54 Oeste 0 947.2 0.4 86
2019-07-31 20:00:00 18.1 35 Noroeste 48 Noroeste 0 946.7 0 80
2019-07-31 19:00:00 19.1 36 Noroeste 54 Oeste 0 946.8 -0.2 74
2019-07-31 18:00:00 19.5 37 Noroeste 59 Noroeste 0 946.8 -0.5 72
2019-07-31 17:00:00 19.6 43 Noroeste 59 Noroeste 0 946.7 -1 72
2019-07-31 16:00:00 20 40 Noroeste 61 Noroeste 0 947 -0.9 72
2019-07-31 15:00:00 18.9 42 Noroeste 59 Noroeste 0 947.3 -0.5 79
2019-07-31 14:00:00 18.3 39 Noroeste 58 Noroeste 0.1 947.7 0.1 87
2019-07-31 13:00:00 18.2 36 Oeste 55 Oeste 0 947.9 0.5 85
2019-07-31 12:00:00 17.2 37 Noroeste 55 Noroeste 0 947.8 1 91
2019-07-31 11:00:00 17.7 35 Noroeste 52 Noroeste 0 947.6 0.7 88
2019-07-31 10:00:00 18.6 37 Oeste 48 Oeste 0 947.4 1.1 75
2019-07-31 09:00:00 17.3 40 Noroeste 55 Noroeste 0 946.8 0.6 71
2019-07-31 08:00:00 15.8 27 Noroeste 48 Oeste 0 946.9 0.7 93
2019-07-31 07:00:00 15.9 33 Noroeste 52 Noroeste 0 946.3 -0.1 90
2019-07-31 06:00:00 16 40 Noroeste 61 Noroeste 0 946.2 -0.8 81
2019-07-31 05:00:00 15.7 40 Noroeste 58 Noroeste 0 946.2 -1.3 86
2019-07-31 04:00:00 15.8 37 Noroeste 58 Oeste 0 946.4 -2 85
2019-07-31 03:00:00 15.9 41 Noroeste 58 Noroeste 0 947 -1.7 92
2019-07-31 02:00:00 16.1 41 Oeste 58 Oeste 0 947.5 -1.1 91
2019-07-31 01:00:00 16 35 Noroeste 54 Noroeste 0 948.4 0.3 87
2019-07-31 00:00:00 16.6 39 Noroeste 55 Noroeste 0 948.7 1.1 93
2019-07-30 23:00:00 16.6 42 Noroeste 58 Noroeste 0 948.6 1.1 94
2019-07-30 22:00:00 16.8 40 Noroeste 58 Noroeste 0 948.1 0.8 95
2019-07-30 21:00:00 17.2 42 Oeste 59 Oeste 0 947.6 0.3 93
2019-07-30 20:00:00 17.2 41 Noroeste 59 Noroeste 0 947.5 0 92
2019-07-30 19:00:00 17.7 43 Noroeste 67 Noroeste 0 947.3 -0.6 86
2019-07-30 18:00:00 18.2 43 Noroeste 65 Noroeste 0 947.3 -1.3 88
2019-07-30 17:00:00 19.5 48 Noroeste 61 Noroeste 0 947.5 -1.3 76
2019-07-30 16:00:00 18.4 43 Noroeste 61 Oeste 0 947.9 -1 86
2019-07-30 15:00:00 17.5 36 Noroeste 54 Noroeste 0 948.6 -0.7 96
2019-07-30 14:00:00 20.4 40 Noroeste 59 Noroeste 0 948.8 -0.3 76
2019-07-30 13:00:00 19.2 44 Noroeste 55 Noroeste 0 948.9 0.2 84
2019-07-30 12:00:00 17 31 Noroeste 52 Oeste 0 949.3 0.5 99
2019-07-30 11:00:00 17.3 32 Noroeste 58 Noroeste 0.1 949.1 0.8 98
2019-07-30 10:00:00 17.2 41 Noroeste 58 Noroeste 0.8 948.7 0.6 99
2019-07-30 09:00:00 17.2 33 Noroeste 50 Noroeste 1.3 948.8 1 100
2019-07-30 08:00:00 17.2 31 Noroeste 48 Noroeste 0 948.3 0.5 97
2019-07-30 07:00:00 17.5 33 Noroeste 48 Noroeste 0 948.1 0.1 95
2019-07-30 06:00:00 17.6 30 Noroeste 54 Noroeste 0.7 947.8 -0.6 99
2019-07-30 05:00:00 18 35 Oeste 59 Noroeste 0.2 947.8 -1.3 98
2019-07-30 04:00:00 18.1 30 Noroeste 50 Noroeste 0 948 -1.5 95
2019-07-30 03:00:00 18 28 Noroeste 48 Norte 0 948.4 -1.3 96
2019-07-30 02:00:00 18.1 27 Noroeste 50 Noroeste 0 949.1 -0.5 96
2019-07-30 01:00:00 18.1 26 Noroeste 42 Noroeste 0 949.5 0.4 97
2019-07-30 00:00:00 17.9 27 Noroeste 42 Noroeste 0 949.7 1.2 98
2019-07-29 23:00:00 17.9 21 Noroeste 42 Noroeste 0.1 949.6 1.8 96
2019-07-29 22:00:00 17.9 24 Noroeste 41 Noroeste 0 949.1 1.2 97
2019-07-29 21:00:00 18.1 26 Noroeste 58 Noroeste 0 948.5 0.6 93
2019-07-29 20:00:00 18.4 36 Noroeste 48 Noroeste 0 947.8 -0.1 89
2019-07-29 19:00:00 18.9 30 Noroeste 50 Noroeste 0 947.9 -0.1 85
2019-07-29 18:00:00 19.6 30 Noroeste 46 Oeste 0 947.9 -0.3 81
2019-07-29 17:00:00 20.5 37 Oeste 52 Oeste 0 947.9 -0.4 76
2019-07-29 16:00:00 20.9 32 Oeste 50 Noroeste 0 948 -0.5 73
2019-07-29 15:00:00 20.9 33 Oeste 50 Oeste 0 948.2 -0.2 71
2019-07-29 14:00:00 19.7 35 Noroeste 48 Noroeste 0 948.3 0.1 83
2019-07-29 13:00:00 20.9 33 Oeste 46 Oeste 0 948.5 0.7 71
2019-07-29 12:00:00 19.9 28 Noroeste 45 Oeste 0 948.4 1 75
2019-07-29 11:00:00 19.3 33 Noroeste 45 Noroeste 0 948.2 1 74
2019-07-29 10:00:00 18.5 28 Noroeste 45 Noroeste 0 947.8 1.2 82
2019-07-29 09:00:00 17.7 30 Noroeste 42 Oeste 0 947.4 0.9 84
2019-07-29 08:00:00 16.9 27 Noroeste 41 Oeste 0 947.2 0.9 83
2019-07-29 07:00:00 16.4 32 Oeste 48 Oeste 0 946.6 0.2 89
2019-07-29 06:00:00 16.8 30 Noroeste 46 Oeste 0 946.5 0 85
2019-07-29 05:00:00 16.8 28 Noroeste 42 Oeste 0 946.3 -0.6 95
2019-07-29 04:00:00 17 25 Noroeste 45 Noroeste 0 946.4 -0.7 96
2019-07-29 03:00:00 17.3 33 Oeste 46 Oeste 0 946.5 -0.8 92
2019-07-29 02:00:00 17.2 31 Noroeste 42 Oeste 0 946.9 -0.5 95
2019-07-29 01:00:00 17.1 28 Noroeste 50 Oeste 0 947.1 0.2 97
2019-07-29 00:00:00 17.5 31 Oeste 52 Oeste 0 947.3 0.8 95
2019-07-28 23:00:00 17.4 32 Noroeste 48 Oeste 0 947.4 1.7 91
2019-07-28 22:00:00 17.5 37 Oeste 54 Noroeste 0 946.9 1.9 95
2019-07-28 21:00:00 17.7 35 Noroeste 54 Noroeste 0 946.5 1.5 90
2019-07-28 20:00:00 18.2 42 Noroeste 61 Oeste 0 945.7 0.5 93
2019-07-28 19:00:00 20.1 46 Oeste 65 Oeste 0 945 -0.5 83
2019-07-28 18:00:00 19.1 41 Oeste 55 Oeste 0 945 -1.1 95
2019-07-28 17:00:00 18.5 41 Oeste 58 Oeste 0 945.2 -1.1 100
2019-07-28 16:00:00 19.4 39 Oeste 54 Oeste 0 945.5 -1.2 100
2019-07-28 15:00:00 19.1 33 Oeste 50 Noroeste 0 946.1 -0.8 100
2019-07-28 14:00:00 19.2 35 Oeste 55 Oeste 0 946.3 -0.5 100
2019-07-28 13:00:00 19.1 29 Oeste 46 Oeste 0 946.7 0.1 100
2019-07-28 12:00:00 19.1 30 Oeste 48 Oeste 0 946.9 0.5 100
2019-07-28 11:00:00 19.2 31 Noroeste 45 Oeste 0.2 946.8 0.5 100
2019-07-28 10:00:00 18.4 32 Oeste 45 Oeste 0 946.6 0.5 100
2019-07-28 09:00:00 17.7 32 Oeste 45 Oeste 0 946.4 0.6 100
2019-07-28 08:00:00 17.4 33 Oeste 55 Oeste 0 946.3 0.4 100
2019-07-28 07:00:00 17.2 34 Oeste 48 Noroeste 0 946.1 -0.3 99
2019-07-28 06:00:00 17.1 32 Noroeste 48 Noroeste 0 945.8 -1.2 99
2019-07-28 05:00:00 17.2 32 Noroeste 46 Oeste 0 945.9 -1.7 100
2019-07-28 04:00:00 16.9 31 Noroeste 46 Noroeste 0 946.4 -1.8 100
2019-07-28 03:00:00 17.2 32 Noroeste 45 Noroeste 0 947 -1.5 100
2019-07-28 02:00:00 17.2 30 Noroeste 45 Oeste 0 947.6 -1 98
2019-07-28 01:00:00 17.1 27 Oeste 45 Noroeste 0 948.2 0.2 92
2019-07-28 00:00:00 16.6 26 Oeste 42 Oeste 0 948.5 1 91
2019-07-27 23:00:00 16.7 31 Oeste 52 Oeste 0 948.6 1.2 92
2019-07-27 22:00:00 17.1 39 Noroeste 52 Noroeste 0 948 0.5 92
2019-07-26 11:00:00 21.3 29 Oeste 37 Oeste 0 948.9 0.8 78
2019-07-26 10:00:00 20 30 Oeste 39 Oeste 0 948.8 1 84
2019-07-26 09:00:00 18.3 28 Oeste 35 Oeste 0 948.5 1 94
2019-07-26 08:00:00 17 25 Oeste 33 Oeste 0 948.1 0.6 98
2019-07-26 07:00:00 16.8 24 Oeste 37 Oeste 0 947.8 -0.1 97
2019-07-26 06:00:00 16.9 27 Oeste 37 Oeste 0 947.5 -0.7 98
2019-07-26 05:00:00 16.8 21 Oeste 30 Oeste 0 947.5 -1 96
2019-07-26 04:00:00 17.1 23 Oeste 37 Oeste 0 947.9 -1.1 97
2019-07-26 03:00:00 17.9 23 Oeste 42 Oeste 0 948.2 -0.8 98
2019-07-26 02:00:00 17.9 34 Oeste 45 Oeste 0 948.5 -0.2 96
2019-07-26 01:00:00 18.2 29 Oeste 45 Oeste 0 949 0.9 94
2019-07-26 00:00:00 18.2 29 Oeste 54 Noroeste 0 949 1.4 95
2019-07-25 23:00:00 18 35 Noroeste 54 Noroeste 0 948.7 1.8 91
2019-07-25 22:00:00 18.3 42 Oeste 58 Oeste 0 948.1 1.2 92
2019-07-25 21:00:00 18.3 38 Oeste 48 Oeste 0 947.6 1 92
2019-07-25 20:00:00 19.8 37 Oeste 46 Oeste 0 946.9 0.3 82
2019-07-25 19:00:00 20.6 37 Oeste 46 Oeste 0 946.9 -0.1 79
2019-07-25 18:00:00 22.2 35 Oeste 42 Oeste 0 946.6 -0.8 66
2019-07-25 17:00:00 22.9 32 Oeste 39 Oeste 0 946.6 -1 67
2019-07-25 16:00:00 24.2 25 Oeste 32 Oeste 0 947 -0.6 61
2019-07-25 15:00:00 25 23 Oeste 33 Oeste 0 947.4 -0.5 59
2019-07-25 14:00:00 23.7 26 Oeste 35 Oeste 0 947.6 0.3 65
2019-07-25 13:00:00 27.6 15 Noroeste 24 Oeste 0 947.6 0.4 41
2019-07-25 12:00:00 25.3 12 Oeste 32 Oeste 0 947.9 0.6 48
2019-07-25 11:00:00 24 23 Oeste 32 Oeste 0 947.3 0.6 46
2019-07-25 10:00:00 22.8 18 Oeste 24 Oeste 0 947.2 0.8 46
2019-07-25 09:00:00 22.6 14 Oeste 28 Oeste 0 947.3 1.2 31
2019-07-25 08:00:00 18.8 15 Oeste 24 Oeste 0 946.7 0.5 39
2019-07-25 07:00:00 18.8 17 Oeste 24 Oeste 0 946.4 0.1 40
2019-07-25 06:00:00 18.5 19 Oeste 28 Oeste 0 946.1 -0.7 47
2019-07-25 05:00:00 18 15 Oeste 32 Oeste 0 946.2 -0.8 54
2019-07-25 04:00:00 17.7 22 Oeste 41 Noroeste 0 946.3 -1.1 61
2019-07-25 03:00:00 17.3 19 Oeste 33 Oeste 0 946.8 -0.5 70
2019-07-25 02:00:00 16.4 27 Oeste 39 Oeste 0 947 -0.1 91
2019-07-25 01:00:00 16.4 27 Oeste 35 Oeste 0 947.4 0.5 94
2019-07-25 00:00:00 16.8 23 Oeste 42 Oeste 0 947.3 0.8 91
2019-07-24 23:00:00 17.1 29 Oeste 39 Oeste 0 947.1 1 86
2019-07-24 22:00:00 18 24 Oeste 33 Oeste 0 946.9 1 77
2019-07-24 21:00:00 18.5 23 Oeste 33 Oeste 0 946.5 0.4 81
2019-07-24 20:00:00 20.7 24 Oeste 35 Oeste 0 946.1 -0.2 70
2019-07-24 19:00:00 21.8 27 Oeste 37 Oeste 0 945.9 -0.6 71
2019-07-24 18:00:00 22.3 24 Oeste 35 Oeste 0 946.1 -0.7 71
2019-07-24 17:00:00 23.7 23 Oeste 32 Oeste 0 946.3 -0.6 63
2019-07-24 16:00:00 24.7 21 Oeste 32 Oeste 0 946.5 -0.7 59
2019-07-24 15:00:00 23.5 23 Oeste 35 Oeste 0 946.8 -0.6 63
2019-07-24 14:00:00 22.8 28 Oeste 37 Oeste -- 946.9 -0.2 68
2019-07-24 13:00:00 23.2 23 Oeste 33 Oeste 0 947.2 0.4 65
2019-07-24 12:00:00 22.1 12 Oeste 30 Oeste 0 947.4 0.8 69
2019-07-24 11:00:00 20.5 24 Oeste 35 Oeste 0 947.1 0.7 75
2019-07-24 10:00:00 19.6 24 Oeste 30 Oeste 0 946.8 0.7 77
2019-07-24 09:00:00 17.8 20 Oeste 28 Oeste 0 946.6 0.7 87
2019-07-24 08:00:00 15.7 17 Oeste 26 Oeste 0 946.4 0.8 96
2019-07-24 07:00:00 15.5 19 Oeste 35 Oeste 0 946.1 -0.2 95
2019-07-24 06:00:00 16.4 31 Oeste 50 Oeste 0 945.9 -1 95
2019-07-24 05:00:00 16.3 37 Oeste 48 Oeste 0 945.6 -2 95
2019-07-24 04:00:00 16.4 36 Oeste 50 Oeste 0 946.3 -1.8 93
2019-07-24 03:00:00 16.6 36 Oeste 48 Oeste 0 946.9 -1.6 93
2019-07-24 02:00:00 16.6 30 Oeste 45 Oeste 0 947.6 -0.7 94
2019-07-24 01:00:00 16.8 28 Oeste 46 Oeste 0 948.1 0.1 92
2019-07-24 00:00:00 16.7 36 Oeste 46 Noroeste 0 948.5 0.7 92
2019-07-23 23:00:00 16.7 33 Oeste 48 Oeste 0 948.3 0.8 92
2019-07-23 22:00:00 17.1 34 Oeste 50 Oeste 0 948 0.7 88
2019-07-23 21:00:00 17.5 38 Oeste 48 Oeste 0 947.8 0.6 88
2019-07-23 20:00:00 18 33 Oeste 48 Oeste 0 947.5 0.2 82
2019-07-23 19:00:00 19.4 34 Oeste 52 Oeste 0 947.3 -0.6 76
2019-07-23 18:00:00 20.3 40 Oeste 52 Oeste 0 947.2 -0.8 72
2019-07-23 17:00:00 20.7 40 Oeste 52 Oeste 0 947.3 -1.1 69
2019-07-23 16:00:00 20.5 39 Oeste 52 Oeste 0 947.9 -0.5 73
2019-07-23 15:00:00 21 40 Noroeste 55 Oeste 0 948 -0.3 68
2019-07-23 14:00:00 20.2 33 Oeste 45 Oeste 0 948.4 0.1 74
2019-07-23 13:00:00 20.6 32 Oeste 42 Oeste 0 948.4 0.3 71
2019-07-23 12:00:00 20.1 31 Oeste 48 Oeste 0 948.3 0.4 73
2019-07-23 11:00:00 19.1 34 Oeste 45 Oeste 0 948.3 0.5 76
2019-07-23 10:00:00 18.3 36 Oeste 48 Oeste 0 948.1 0.3 79
2019-07-23 09:00:00 16.9 33 Oeste 46 Oeste 0 947.9 0.3 85
2019-07-23 08:00:00 16.1 33 Oeste 50 Oeste 0 947.8 0.2 91
2019-07-23 07:00:00 16.1 36 Oeste 48 Oeste 0 947.8 -0.1 91
2019-07-23 06:00:00 16.1 34 Oeste 48 Oeste 0 947.6 -0.7 89
2019-07-23 05:00:00 16.3 33 Oeste 46 Oeste 0 947.6 -1.2 89
2019-07-23 04:00:00 16.2 31 Oeste 46 Oeste 0 947.9 -1.5 86
2019-07-23 03:00:00 16.3 35 Oeste 50 Oeste 0 948.3 -1.1 86
2019-07-23 02:00:00 16.4 38 Oeste 54 Oeste 0 948.8 -0.7 87
2019-07-23 01:00:00 16.5 41 Oeste 54 Oeste 0 949.4 0.3 90
2019-07-23 00:00:00 16.8 37 Oeste 52 Oeste 0 949.4 0.5 89
2019-07-22 23:00:00 16.8 35 Oeste 50 Oeste 0 949.5 1.4 89
2019-07-22 22:00:00 16.8 36 Oeste 52 Oeste 0 949.1 1.1 90
2019-07-22 21:00:00 17.1 34 Oeste 48 Oeste 0 948.9 1.2 88
2019-07-22 20:00:00 17.2 41 Oeste 50 Oeste 0 948.1 0.1 86
2019-07-22 19:00:00 19.2 36 Noroeste 48 Oeste 0 948 -0.7 79
2019-07-22 18:00:00 20.5 38 Noroeste 48 Noroeste 0 947.7 -1.6 75
2019-07-22 17:00:00 20.9 33 Oeste 46 Oeste 0 948 -1.5 72
2019-07-22 16:00:00 20.7 39 Oeste 48 Oeste 0 948.7 -1 74
2019-07-22 15:00:00 21.2 37 Oeste 52 Oeste 0 949.3 -0.5 69
2019-07-22 14:00:00 21.2 37 Oeste 50 Oeste 0 949.5 -0.2 73
2019-07-22 13:00:00 20.9 33 Oeste 50 Oeste 0 949.7 0.3 71
2019-07-22 12:00:00 19.8 36 Oeste 48 Oeste 0 949.8 0.4 75
2019-07-22 11:00:00 19.3 35 Oeste 50 Oeste 0 949.7 0.6 78
2019-07-22 10:00:00 18.2 36 Oeste 52 Oeste 0 949.4 0.3 83
2019-07-22 09:00:00 17.2 38 Oeste 50 Oeste 0 949.4 0.5 90
2019-07-22 08:00:00 16.6 39 Oeste 52 Oeste 0 949.1 -0.3 92
2019-07-22 07:00:00 16.3 37 Oeste 52 Oeste 0 949.1 -0.3 94
2019-07-22 06:00:00 16.2 38 Oeste 48 Oeste 0 948.9 -0.9 93
2019-07-22 05:00:00 16.6 31 Oeste 42 Oeste 0 949.4 -1 95
2019-07-22 04:00:00 16.7 27 Noroeste 45 Oeste 0 949.4 -1.6 94
2019-07-22 03:00:00 16.6 30 Oeste 42 Oeste 0 949.8 -1.3 98
2019-07-22 02:00:00 16.9 26 Oeste 45 Oeste 0 950.4 -0.6 96
2019-07-22 01:00:00 17.2 30 Oeste 42 Oeste 0 951 0.4 94
2019-07-22 00:00:00 17.2 28 Oeste 42 Oeste 0 951.1 1 95
2019-07-21 23:00:00 17.2 32 Oeste 39 Oeste 0 951 1.3 95
2019-07-21 22:00:00 17.3 27 Oeste 37 Oeste 0 950.6 1 94
2019-07-21 21:00:00 17.6 27 Oeste 37 Oeste 0 950.1 0.6 91
2019-07-21 20:00:00 18.8 29 Oeste 37 Oeste 0 949.7 0 86
2019-07-21 19:00:00 20.4 29 Oeste 39 Oeste 0 949.6 -0.2 77
2019-07-21 18:00:00 21.3 29 Oeste 45 Oeste 0 949.5 -0.4 71
2019-07-21 17:00:00 21.9 32 Oeste 42 Noroeste 0 949.7 -0.4 71
2019-07-21 16:00:00 22.4 25 Oeste 37 Oeste 0 949.8 -0.7 69
2019-07-21 15:00:00 22.3 25 Oeste 35 Oeste 0 949.9 -0.5 70
2019-07-21 14:00:00 22.1 25 Oeste 39 Oeste 0 950.1 -0.1 70
2019-07-21 13:00:00 21.4 24 Oeste 35 Oeste 0 950.5 0.4 72
2019-07-21 12:00:00 20.9 26 Oeste 35 Oeste 0 950.4 0.5 72
2019-07-21 11:00:00 20.5 22 Noroeste 32 Oeste 0 950.2 0.8 78
2019-07-21 10:00:00 19.6 18 Noroeste 28 Noroeste 0 950.1 1 79
2019-07-21 09:00:00 18.4 20 Noroeste 28 Oeste 0 949.9 1 85
2019-07-21 08:00:00 16.9 21 Oeste 33 Oeste 0 949.4 0.2 93
2019-07-21 07:00:00 16.5 20 Oeste 28 Oeste 0 949.1 -0.2 94
2019-07-21 06:00:00 16.5 22 Oeste 28 Oeste 0 948.9 -0.7 96
2019-07-21 05:00:00 16.5 18 Oeste 28 Oeste 0 949.2 -1 96
2019-07-21 04:00:00 16.7 22 Oeste 32 Oeste 0 949.3 -1.3 96
2019-07-21 03:00:00 16.7 23 Oeste 32 Noroeste 0 949.6 -1.4 95
2019-07-21 02:00:00 16.8 17 Noroeste 28 Noroeste 0 950.2 -0.7 93
2019-07-21 01:00:00 17.3 16 Noroeste 26 Oeste 0 950.6 0.6 94
2019-07-21 00:00:00 17.4 19 Noroeste 32 Norte 0 951 1.8 91